createdAt,value
2019-02-11T00:00:03.734Z,28.1
2019-02-11T00:01:02.978Z,31.7
2019-02-11T00:02:03.309Z,34.2
2019-02-11T00:03:02.702Z,34.2
2019-02-11T00:04:03.673Z,28.1
2019-02-11T00:05:03.499Z,28.1
2019-02-11T00:06:03.409Z,33.1
2019-02-11T00:07:03.732Z,36.7
2019-02-11T00:08:03.337Z,41.8
2019-02-11T00:09:02.989Z,35.6
2019-02-11T00:10:03.530Z,30.6
2019-02-11T00:11:03.702Z,30.6
2019-02-11T00:12:03.688Z,27
2019-02-11T00:13:11.313Z,33.1
2019-02-11T00:14:03.035Z,24.5
2019-02-11T00:15:03.350Z,23.4
2019-02-11T00:16:03.008Z,34.2
2019-02-11T00:17:03.892Z,27
2019-02-11T00:18:03.539Z,23.4
2019-02-11T00:19:03.426Z,23.4
2019-02-11T00:20:03.933Z,27
2019-02-11T00:21:03.778Z,25.6
2019-02-11T00:22:03.491Z,23.4
2019-02-11T00:23:03.063Z,23.4
2019-02-11T00:24:03.571Z,20.9
2019-02-11T00:25:03.925Z,34.2
2019-02-11T00:26:03.458Z,27
2019-02-11T00:27:03.519Z,27
2019-02-11T00:28:03.231Z,27
2019-02-11T00:29:03.038Z,29.5
2019-02-11T00:30:03.784Z,27
2019-02-11T00:31:03.990Z,25.6
2019-02-11T00:32:03.179Z,35.6
2019-02-11T00:33:03.959Z,25.6
2019-02-11T00:34:03.413Z,34.2
2019-02-11T00:35:03.777Z,37.8
2019-02-11T00:36:03.483Z,27
2019-02-11T00:37:02.803Z,39.2
2019-02-11T00:38:03.330Z,29.5
2019-02-11T00:39:03.595Z,25.6
2019-02-11T00:40:03.609Z,24.5
2019-02-11T00:41:03.938Z,24.5
2019-02-11T00:42:03.062Z,31.7
2019-02-11T00:43:03.807Z,25.6
2019-02-11T00:44:03.025Z,27
2019-02-11T00:45:03.663Z,24.5
2019-02-11T00:46:02.845Z,20.9
2019-02-11T00:47:03.476Z,28.1
2019-02-11T00:48:03.194Z,22
2019-02-11T00:49:03.750Z,28.1
2019-02-11T00:50:03.156Z,25.6
2019-02-11T00:51:03.439Z,29.5
2019-02-11T00:52:03.144Z,34.2
2019-02-11T00:53:03.555Z,31.7
2019-02-11T00:54:03.909Z,24.5
2019-02-11T00:55:03.354Z,39.2
2019-02-11T00:56:02.936Z,29.5
2019-02-11T00:57:03.335Z,31.7
2019-02-11T00:58:03.648Z,22
2019-02-11T00:59:03.497Z,20.9
2019-02-11T01:00:03.971Z,29.5
2019-02-11T01:01:03.372Z,25.6
2019-02-11T01:02:03.851Z,25.6
2019-02-11T01:03:03.304Z,25.6
2019-02-11T01:04:03.653Z,25.6
2019-02-11T01:05:03.491Z,25.6
2019-02-11T01:06:03.580Z,25.6
2019-02-11T01:07:03.365Z,25.6
2019-02-11T01:08:04.034Z,25.6
2019-02-11T01:09:03.115Z,23.4
2019-02-11T01:10:02.840Z,28.1
2019-02-11T01:11:03.022Z,24.5
2019-02-11T01:12:03.773Z,31.7
2019-02-11T01:13:03.241Z,27
2019-02-11T01:14:03.797Z,28.1
2019-02-11T01:15:03.200Z,30.6
2019-02-11T01:16:03.591Z,24.5
2019-02-11T01:17:03.130Z,28.1
2019-02-11T01:18:03.572Z,34.2
2019-02-11T01:19:03.218Z,30.6
2019-02-11T01:20:03.598Z,30.6
2019-02-11T01:21:03.109Z,34.2
2019-02-11T01:22:03.656Z,31.7
2019-02-11T01:23:02.835Z,29.5
2019-02-11T01:24:03.869Z,30.6
2019-02-11T01:25:03.126Z,27
2019-02-11T01:26:03.738Z,35.6
2019-02-11T01:27:03.044Z,29.5
2019-02-11T01:28:03.673Z,29.5
2019-02-11T01:29:02.938Z,23.4
2019-02-11T01:30:03.562Z,28.1
2019-02-11T01:31:02.877Z,30.6
2019-02-11T01:32:03.405Z,23.4
2019-02-11T01:33:03.057Z,28.1
2019-02-11T01:34:03.373Z,29.5
2019-02-11T01:35:03.991Z,30.6
2019-02-11T01:36:03.139Z,28.1
2019-02-11T01:37:03.917Z,22
2019-02-11T01:38:02.888Z,22
2019-02-11T01:39:03.745Z,20.9
2019-02-11T01:40:03.085Z,24.5
2019-02-11T01:41:03.650Z,23.4
2019-02-11T01:42:02.986Z,28.1
2019-02-11T01:43:03.583Z,23.4
2019-02-11T01:44:03.054Z,25.6
2019-02-11T01:45:03.633Z,29.5
2019-02-11T01:46:02.969Z,23.4
2019-02-11T01:47:03.610Z,27
2019-02-11T01:48:03.788Z,30.6
2019-02-11T01:49:03.173Z,28.1
2019-02-11T01:50:02.929Z,28.1
2019-02-11T01:51:03.593Z,27
2019-02-11T01:52:03.989Z,33.1
2019-02-11T01:53:03.312Z,25.6
2019-02-11T01:54:02.792Z,23.4
2019-02-11T01:55:03.734Z,33.1
2019-02-11T01:56:03.051Z,30.6
2019-02-11T01:57:03.383Z,23.4
2019-02-11T01:58:02.828Z,19.4
2019-02-11T01:59:03.031Z,27
2019-02-11T02:00:03.664Z,27
2019-02-11T02:01:02.929Z,28.1
2019-02-11T02:02:04.037Z,27
2019-02-11T02:03:03.163Z,27
2019-02-11T02:04:03.709Z,27
2019-02-11T02:05:03.357Z,29.5
2019-02-11T02:06:03.519Z,25.6
2019-02-11T02:07:03.859Z,25.6
2019-02-11T02:08:03.479Z,30.6
2019-02-11T02:09:02.837Z,30.6
2019-02-11T02:10:03.598Z,27
2019-02-11T02:11:03.741Z,25.6
2019-02-11T02:12:03.391Z,20.9
2019-02-11T02:13:04.174Z,27
2019-02-11T02:14:03.427Z,28.1
2019-02-11T02:15:03.730Z,28.1
2019-02-11T02:16:03.249Z,28.1
2019-02-11T02:17:03.587Z,24.5
2019-02-11T02:18:03.109Z,24.5
2019-02-11T02:19:03.455Z,24.5
2019-02-11T02:20:03.243Z,27
2019-02-11T02:21:03.590Z,27
2019-02-11T02:22:03.324Z,27
2019-02-11T02:23:03.808Z,27
2019-02-11T02:24:03.021Z,31.7
2019-02-11T02:25:03.732Z,34.2
2019-02-11T02:26:02.928Z,25.6
2019-02-11T02:27:03.504Z,24.5
2019-02-11T02:28:03.155Z,24.5
2019-02-11T02:29:03.274Z,23.4
2019-02-11T02:30:03.937Z,22
2019-02-11T02:31:03.237Z,20.9
2019-02-11T02:32:03.921Z,22
2019-02-11T02:33:03.385Z,24.5
2019-02-11T02:34:03.808Z,18.4
2019-02-11T02:35:04.151Z,18.4
2019-02-11T02:36:03.712Z,22
2019-02-11T02:37:03.180Z,20.9
2019-02-11T02:38:03.707Z,19.4
2019-02-11T02:39:03.262Z,15.8
2019-02-11T02:40:03.754Z,23.4
2019-02-11T02:41:03.143Z,24.5
2019-02-11T02:42:03.831Z,20.9
2019-02-11T02:43:03.164Z,23.4
2019-02-11T02:44:03.487Z,27
2019-02-11T02:45:02.934Z,23.4
2019-02-11T02:46:02.782Z,31.7
2019-02-11T02:47:03.151Z,30.6
2019-02-11T02:48:03.854Z,27
2019-02-11T02:49:03.126Z,27
2019-02-11T02:50:03.874Z,27
2019-02-11T02:51:03.213Z,25.6
2019-02-11T02:52:04.255Z,25.6
2019-02-11T02:53:03.335Z,30.6
2019-02-11T02:54:03.662Z,24.5
2019-02-11T02:55:03.197Z,24.5
2019-02-11T02:56:03.537Z,24.5
2019-02-11T02:57:02.765Z,27
2019-02-11T02:58:03.730Z,31.7
2019-02-11T02:59:03.094Z,30.6
2019-02-11T03:00:03.806Z,25.6
2019-02-11T03:01:03.178Z,23.4
2019-02-11T03:02:03.435Z,23.4
2019-02-11T03:03:03.881Z,23.4
2019-02-11T03:04:03.575Z,31.7
2019-02-11T03:05:03.315Z,22
2019-02-11T03:06:03.630Z,18.4
2019-02-11T03:07:03.017Z,22
2019-02-11T03:08:03.323Z,28.1
2019-02-11T03:09:03.863Z,24.5
2019-02-11T03:10:03.511Z,24.5
2019-02-11T03:11:03.080Z,30.6
2019-02-11T03:12:03.379Z,28.1
2019-02-11T03:13:03.137Z,24.5
2019-02-11T03:14:06.889Z,19.4
2019-02-11T03:15:03.996Z,20.9
2019-02-11T03:16:03.397Z,20.9
2019-02-11T03:17:03.147Z,29.5
2019-02-11T03:18:03.355Z,22
2019-02-11T03:19:03.631Z,22
2019-02-11T03:20:03.169Z,20.9
2019-02-11T03:21:03.676Z,24.5
2019-02-11T03:22:02.936Z,24.5
2019-02-11T03:23:03.695Z,27
2019-02-11T03:24:03.042Z,27
2019-02-11T03:25:03.808Z,24.5
2019-02-11T03:26:03.298Z,22
2019-02-11T03:27:02.936Z,22
2019-02-11T03:28:03.218Z,20.9
2019-02-11T03:29:03.458Z,17.3
2019-02-11T03:30:03.342Z,19.4
2019-02-11T03:31:03.622Z,20.9
2019-02-11T03:32:03.343Z,23.4
2019-02-11T03:33:03.525Z,25.6
2019-02-11T03:34:03.167Z,27
2019-02-11T03:35:03.981Z,22
2019-02-11T03:36:03.071Z,20.9
2019-02-11T03:37:03.361Z,19.4
2019-02-11T03:38:03.197Z,19.4
2019-02-11T03:39:03.596Z,20.9
2019-02-11T03:40:03.157Z,20.9
2019-02-11T03:41:03.422Z,25.6
2019-02-11T03:42:03.057Z,23.4
2019-02-11T03:43:03.665Z,24.5
2019-02-11T03:44:03.306Z,23.4
2019-02-11T03:45:03.442Z,27
2019-02-11T03:46:03.574Z,25.6
2019-02-11T03:47:03.264Z,23.4
2019-02-11T03:48:03.856Z,20.9
2019-02-11T03:49:03.205Z,27
2019-02-11T03:50:03.588Z,28.1
2019-02-11T03:51:03.483Z,23.4
2019-02-11T03:52:03.795Z,23.4
2019-02-11T03:53:03.222Z,25.6
2019-02-11T03:54:03.585Z,24.5
2019-02-11T03:55:03.458Z,22
2019-02-11T03:56:03.936Z,22
2019-02-11T03:57:03.269Z,27
2019-02-11T03:58:03.684Z,24.5
2019-02-11T03:59:03.109Z,24.5
2019-02-11T04:00:03.695Z,25.6
2019-02-11T04:01:02.905Z,29.5
2019-02-11T04:02:03.344Z,25.6
2019-02-11T04:03:04.091Z,24.5
2019-02-11T04:04:02.975Z,20.9
2019-02-11T04:05:03.756Z,28.1
2019-02-11T04:06:03.035Z,29.5
2019-02-11T04:07:03.587Z,27
2019-02-11T04:08:03.588Z,23.4
2019-02-11T04:09:03.882Z,22
2019-02-11T04:10:03.164Z,24.5
2019-02-11T04:11:03.780Z,23.4
2019-02-11T04:12:03.940Z,23.4
2019-02-11T04:13:03.542Z,24.5
2019-02-11T04:14:02.782Z,29.5
2019-02-11T04:15:03.562Z,29.5
2019-02-11T04:16:03.089Z,25.6
2019-02-11T04:17:03.483Z,25.6
2019-02-11T04:18:03.622Z,31.7
2019-02-11T04:19:03.122Z,25.6
2019-02-11T04:20:03.681Z,33.1
2019-02-11T04:21:03.396Z,23.4
2019-02-11T04:22:03.838Z,19.4
2019-02-11T04:23:03.240Z,20.9
2019-02-11T04:24:03.740Z,22
2019-02-11T04:25:03.309Z,18.4
2019-02-11T04:26:03.730Z,27
2019-02-11T04:27:03.540Z,23.4
2019-02-11T04:28:03.606Z,24.5
2019-02-11T04:29:03.533Z,18.4
2019-02-11T04:30:04.001Z,35.6
2019-02-11T04:31:03.588Z,25.6
2019-02-11T04:32:03.003Z,25.6
2019-02-11T04:33:03.648Z,23.4
2019-02-11T04:34:03.150Z,22
2019-02-11T04:35:03.809Z,15.8
2019-02-11T04:36:02.951Z,19.4
2019-02-11T04:37:03.435Z,19.4
2019-02-11T04:38:03.954Z,30.6
2019-02-11T04:39:03.536Z,30.6
2019-02-11T04:40:03.128Z,25.6
2019-02-11T04:41:03.336Z,23.4
2019-02-11T04:42:03.746Z,22
2019-02-11T04:43:03.556Z,20.9
2019-02-11T04:44:03.725Z,23.4
2019-02-11T04:45:03.260Z,22
2019-02-11T04:46:03.647Z,23.4
2019-02-11T04:47:03.545Z,22
2019-02-11T04:48:03.874Z,24.5
2019-02-11T04:49:03.882Z,22
2019-02-11T04:50:03.378Z,23.4
2019-02-11T04:51:03.825Z,22
2019-02-11T04:52:03.295Z,28.1
2019-02-11T04:53:03.000Z,20.9
2019-02-11T04:54:03.438Z,22
2019-02-11T04:55:03.683Z,22
2019-02-11T04:56:03.113Z,28.1
2019-02-11T04:57:03.732Z,27
2019-02-11T04:58:03.195Z,18.4
2019-02-11T04:59:03.841Z,19.4
2019-02-11T05:00:03.354Z,19.4
2019-02-11T05:01:03.849Z,20.9
2019-02-11T05:02:03.330Z,20.9
2019-02-11T05:03:03.752Z,20.9
2019-02-11T05:04:03.121Z,20.9
2019-02-11T05:05:03.163Z,20.9
2019-02-11T05:06:03.126Z,20.9
2019-02-11T05:07:03.631Z,20.9
2019-02-11T05:08:03.165Z,20.9
2019-02-11T05:09:03.368Z,27
2019-02-11T05:10:03.522Z,22
2019-02-11T05:11:03.606Z,25.6
2019-02-11T05:12:03.010Z,22
2019-02-11T05:13:03.534Z,18.4
2019-02-11T05:14:03.090Z,22
2019-02-11T05:15:03.573Z,20.9
2019-02-11T05:16:03.817Z,20.9
2019-02-11T05:17:03.680Z,20.9
2019-02-11T05:18:03.162Z,23.4
2019-02-11T05:19:03.586Z,19.4
2019-02-11T05:20:03.134Z,20.9
2019-02-11T05:21:03.509Z,28.1
2019-02-11T05:22:03.734Z,25.6
2019-02-11T05:23:03.412Z,28.1
2019-02-11T05:24:03.955Z,25.6
2019-02-11T05:25:03.675Z,18.4
2019-02-11T05:26:02.911Z,14.8
2019-02-11T05:27:03.508Z,14.8
2019-02-11T05:28:03.869Z,11.2
2019-02-11T05:29:03.440Z,13.3
2019-02-11T05:30:03.935Z,15.8
2019-02-11T05:31:03.696Z,14.8
2019-02-11T05:32:03.006Z,18.4
2019-02-11T05:33:03.707Z,17.3
2019-02-11T05:34:03.746Z,15.8
2019-02-11T05:35:03.347Z,18.4
2019-02-11T05:36:03.876Z,19.4
2019-02-11T05:37:03.395Z,15.8
2019-02-11T05:38:03.769Z,27
2019-02-11T05:39:03.099Z,19.4
2019-02-11T05:40:03.716Z,17.3
2019-02-11T05:41:03.381Z,18.4
2019-02-11T05:42:03.869Z,18.4
2019-02-11T05:43:03.812Z,15.8
2019-02-11T05:44:06.312Z,14.8
2019-02-11T05:45:03.235Z,17.3
2019-02-11T05:46:03.553Z,15.8
2019-02-11T05:47:03.075Z,18.4
2019-02-11T05:48:03.424Z,14.8
2019-02-11T05:49:03.158Z,12.2
2019-02-11T05:50:03.614Z,14.8
2019-02-11T05:51:02.939Z,14.8
2019-02-11T05:52:03.364Z,14.8
2019-02-11T05:53:03.001Z,22
2019-02-11T05:54:03.411Z,18.4
2019-02-11T05:55:03.031Z,18.4
2019-02-11T05:56:03.569Z,17.3
2019-02-11T05:57:02.842Z,13.3
2019-02-11T05:58:03.497Z,14.8
2019-02-11T05:59:04.006Z,12.2
2019-02-11T06:00:03.585Z,13.3
2019-02-11T06:01:03.721Z,13.3
2019-02-11T06:02:03.481Z,19.4
2019-02-11T06:03:03.817Z,15.8
2019-02-11T06:04:03.437Z,14.8
2019-02-11T06:05:03.977Z,13.3
2019-02-11T06:06:03.022Z,17.3
2019-02-11T06:07:03.976Z,17.3
2019-02-11T06:08:03.323Z,17.3
2019-02-11T06:09:02.740Z,18.4
2019-02-11T06:10:03.476Z,15.8
2019-02-11T06:11:03.891Z,15.8
2019-02-11T06:12:03.192Z,18.4
2019-02-11T06:13:02.901Z,17.3
2019-02-11T06:14:03.508Z,18.4
2019-02-11T06:15:05.241Z,18.4
2019-02-11T06:16:03.430Z,14.8
2019-02-11T06:17:03.833Z,20.9
2019-02-11T06:18:02.208Z,20.9
2019-02-11T06:19:02.769Z,20.9
2019-02-11T06:20:03.274Z,22
2019-02-11T06:21:02.912Z,18.4
2019-02-11T06:22:03.187Z,17.3
2019-02-11T06:23:03.894Z,17.3
2019-02-11T06:24:03.169Z,23.4
2019-02-11T06:25:03.996Z,23.4
2019-02-11T06:26:03.233Z,18.4
2019-02-11T06:27:03.716Z,15.8
2019-02-11T06:28:03.390Z,14.8
2019-02-11T06:29:03.406Z,14.8
2019-02-11T06:30:03.220Z,14.8
2019-02-11T06:31:03.486Z,17.3
2019-02-11T06:32:03.170Z,17.3
2019-02-11T06:33:03.610Z,17.3
2019-02-11T06:34:03.139Z,18.4
2019-02-11T06:35:03.693Z,14.8
2019-02-11T06:36:13.214Z,17.3
2019-02-11T06:37:03.291Z,14.8
2019-02-11T06:38:03.210Z,14.8
2019-02-11T06:39:03.542Z,14.8
2019-02-11T06:40:03.231Z,14.8
2019-02-11T06:41:03.600Z,13.3
2019-02-11T06:42:03.063Z,17.3
2019-02-11T06:43:03.642Z,17.3
2019-02-11T06:44:03.331Z,17.3
2019-02-11T06:45:03.542Z,17.3
2019-02-11T06:46:03.141Z,13.3
2019-02-11T06:47:03.546Z,13.3
2019-02-11T06:48:02.988Z,13.3
2019-02-11T06:49:03.383Z,13.3
2019-02-11T06:50:03.054Z,13.3
2019-02-11T06:51:03.458Z,13.3
2019-02-11T06:52:03.194Z,13.3
2019-02-11T06:53:03.551Z,13.3
2019-02-11T06:54:03.187Z,13.3
2019-02-11T06:55:03.728Z,15.8
2019-02-11T06:56:03.079Z,18.4
2019-02-11T06:57:04.576Z,18.4
2019-02-11T06:58:03.206Z,15.8
2019-02-11T06:59:03.258Z,17.3
2019-02-11T07:00:02.936Z,14.8
2019-02-11T07:01:03.543Z,13.3
2019-02-11T07:02:02.880Z,13.3
2019-02-11T07:03:03.655Z,13.3
2019-02-11T07:04:03.763Z,13.3
2019-02-11T07:05:03.675Z,13.3
2019-02-11T07:06:03.022Z,13.3
2019-02-11T07:07:03.343Z,13.3
2019-02-11T07:08:03.793Z,13.3
2019-02-11T07:09:03.110Z,15.8
2019-02-11T07:10:03.752Z,17.3
2019-02-11T07:11:03.246Z,17.3
2019-02-11T07:12:03.743Z,17.3
2019-02-11T07:13:03.096Z,15.8
2019-02-11T07:14:03.745Z,13.3
2019-02-11T07:15:03.261Z,13.3
2019-02-11T07:16:03.787Z,14.8
2019-02-11T07:17:02.818Z,23.4
2019-02-11T07:18:03.556Z,15.8
2019-02-11T07:19:03.122Z,15.8
2019-02-11T07:20:03.669Z,15.8
2019-02-11T07:21:02.872Z,15.8
2019-02-11T07:22:03.626Z,14.8
2019-02-11T07:23:03.206Z,12.2
2019-02-11T07:24:03.680Z,12.2
2019-02-11T07:25:03.128Z,12.2
2019-02-11T07:26:03.304Z,15.8
2019-02-11T07:27:02.909Z,12.2
2019-02-11T07:28:03.749Z,12.2
2019-02-11T07:29:02.951Z,12.2
2019-02-11T07:30:03.714Z,11.2
2019-02-11T07:31:03.122Z,11.2
2019-02-11T07:32:03.612Z,11.2
2019-02-11T07:33:03.860Z,12.2
2019-02-11T07:34:03.581Z,12.2
2019-02-11T07:35:04.045Z,12.2
2019-02-11T07:36:03.579Z,11.2
2019-02-11T07:37:03.059Z,11.2
2019-02-11T07:38:03.398Z,12.2
2019-02-11T07:39:03.867Z,12.2
2019-02-11T07:40:03.472Z,13.3
2019-02-11T07:41:03.763Z,11.2
2019-02-11T07:42:05.068Z,11.2
2019-02-11T07:43:02.799Z,9.7
2019-02-11T07:44:03.508Z,9.7
2019-02-11T07:45:03.978Z,12.2
2019-02-11T07:46:03.488Z,12.2
2019-02-11T07:47:03.204Z,11.2
2019-02-11T07:48:03.248Z,11.2
2019-02-11T07:49:02.970Z,12.2
2019-02-11T07:50:03.565Z,11.2
2019-02-11T07:51:03.609Z,9.7
2019-02-11T07:52:03.116Z,9.7
2019-02-11T07:53:02.944Z,11.2
2019-02-11T07:54:02.757Z,12.2
2019-02-11T07:55:03.386Z,13.3
2019-02-11T07:56:03.133Z,12.2
2019-02-11T07:57:03.703Z,12.2
2019-02-11T07:58:03.060Z,12.2
2019-02-11T07:59:03.585Z,12.2
2019-02-11T08:00:03.353Z,12.2
2019-02-11T08:01:03.521Z,12.2
2019-02-11T08:02:03.220Z,8.6
2019-02-11T08:03:03.490Z,13.3
2019-02-11T08:04:03.757Z,13.3
2019-02-11T08:05:03.733Z,11.2
2019-02-11T08:06:03.789Z,12.2
2019-02-11T08:07:03.249Z,11.2
2019-02-11T08:08:02.974Z,12.2
2019-02-11T08:09:03.502Z,14.8
2019-02-11T08:10:02.965Z,12.2
2019-02-11T08:11:03.417Z,13.3
2019-02-11T08:12:03.033Z,13.3
2019-02-11T08:13:03.571Z,12.2
2019-02-11T08:14:03.224Z,13.3
2019-02-11T08:15:03.497Z,13.3
2019-02-11T08:16:03.123Z,14.8
2019-02-11T08:17:03.437Z,12.2
2019-02-11T08:18:03.658Z,13.3
2019-02-11T08:19:03.460Z,14.8
2019-02-11T08:20:02.980Z,14.8
2019-02-11T08:21:03.633Z,14.8
2019-02-11T08:22:03.986Z,12.2
2019-02-11T08:23:14.112Z,15.8
2019-02-11T08:24:02.876Z,15.8
2019-02-11T08:25:03.460Z,14.8
2019-02-11T08:26:03.638Z,13.3
2019-02-11T08:27:03.320Z,12.2
2019-02-11T08:28:03.825Z,15.8
2019-02-11T08:29:03.226Z,13.3
2019-02-11T08:30:03.258Z,14.8
2019-02-11T08:31:03.150Z,14.8
2019-02-11T08:32:03.601Z,14.8
2019-02-11T08:33:02.969Z,14.8
2019-02-11T08:34:03.218Z,14.8
2019-02-11T08:35:02.821Z,14.8
2019-02-11T08:36:03.372Z,14.8
2019-02-11T08:37:03.520Z,14.8
2019-02-11T08:38:03.021Z,14.8
2019-02-11T08:39:03.696Z,0
2019-02-11T08:40:03.025Z,15.8
2019-02-11T08:41:03.321Z,15.8
2019-02-11T08:42:03.858Z,15.8
2019-02-11T08:43:03.430Z,13.3
2019-02-11T08:44:03.714Z,15.8
2019-02-11T08:45:03.374Z,15.8
2019-02-11T08:46:03.648Z,13.3
2019-02-11T08:47:02.997Z,14.8
2019-02-11T08:48:03.323Z,15.8
2019-02-11T08:49:03.505Z,15.8
2019-02-11T08:50:03.880Z,17.3
2019-02-11T08:51:03.165Z,15.8
2019-02-11T08:52:03.458Z,17.3
2019-02-11T08:53:03.776Z,14.8
2019-02-11T08:54:03.065Z,14.8
2019-02-11T08:55:03.921Z,15.8
2019-02-11T08:56:03.779Z,17.3
2019-02-11T08:57:03.722Z,17.3
2019-02-11T08:58:03.546Z,15.8
2019-02-11T08:59:03.255Z,15.8
2019-02-11T09:00:03.288Z,15.8
2019-02-11T09:01:03.692Z,18.4
2019-02-11T09:02:03.379Z,18.4
2019-02-11T09:03:02.876Z,18.4
2019-02-11T09:04:03.277Z,18.4
2019-02-11T09:05:03.654Z,18.4
2019-02-11T09:06:03.071Z,18.4
2019-02-11T09:07:03.615Z,18.4
2019-02-11T09:08:03.768Z,18.4
2019-02-11T09:09:03.479Z,19.4
2019-02-11T09:10:03.187Z,15.8
2019-02-11T09:11:03.491Z,13.3
2019-02-11T09:12:02.866Z,14.8
2019-02-11T09:13:03.130Z,15.8
2019-02-11T09:14:02.886Z,18.4
2019-02-11T09:15:03.303Z,17.3
2019-02-11T09:16:03.873Z,17.3
2019-02-11T09:17:10.884Z,13.3
2019-02-11T09:18:03.751Z,19.4
2019-02-11T09:19:03.295Z,17.3
2019-02-11T09:20:03.635Z,17.3
2019-02-11T09:21:03.311Z,18.4
2019-02-11T09:22:08.161Z,14.8
2019-02-11T09:23:03.406Z,15.8
2019-02-11T09:24:02.992Z,18.4
2019-02-11T09:25:03.355Z,13.3
2019-02-11T09:26:03.545Z,12.2
2019-02-11T09:27:03.173Z,14.8
2019-02-11T09:28:03.555Z,13.3
2019-02-11T09:29:03.347Z,15.8
2019-02-11T09:30:03.779Z,11.2
2019-02-11T09:31:03.281Z,14.8
2019-02-11T09:32:03.510Z,19.4
2019-02-11T09:33:03.092Z,14.8
2019-02-11T09:34:03.624Z,13.3
2019-02-11T09:35:03.319Z,13.3
2019-02-11T09:36:03.771Z,13.3
2019-02-11T09:37:02.863Z,14.8
2019-02-11T09:38:03.391Z,17.3
2019-02-11T09:39:03.880Z,14.8
2019-02-11T09:40:03.231Z,13.3
2019-02-11T09:41:02.832Z,13.3
2019-02-11T09:42:03.659Z,22
2019-02-11T09:43:03.073Z,18.4
2019-02-11T09:44:03.381Z,19.4
2019-02-11T09:45:03.262Z,14.8
2019-02-11T09:46:04.501Z,15.8
2019-02-11T09:47:04.383Z,17.3
2019-02-11T09:48:03.044Z,17.3
2019-02-11T09:49:03.499Z,14.8
2019-02-11T09:50:03.722Z,18.4
2019-02-11T09:51:03.115Z,17.3
2019-02-11T09:52:02.929Z,19.4
2019-02-11T09:53:03.279Z,17.3
2019-02-11T09:54:02.932Z,15.8
2019-02-11T09:55:03.470Z,14.8
2019-02-11T09:56:03.848Z,17.3
2019-02-11T09:57:03.390Z,18.4
2019-02-11T09:58:03.869Z,15.8
2019-02-11T09:59:03.345Z,20.9
2019-02-11T10:00:03.717Z,13.3
2019-02-11T10:01:03.194Z,14.8
2019-02-11T10:02:03.314Z,15.8
2019-02-11T10:03:02.899Z,15.8
2019-02-11T10:04:03.426Z,20.9
2019-02-11T10:05:03.043Z,19.4
2019-02-11T10:06:03.353Z,22
2019-02-11T10:07:02.919Z,17.3
2019-02-11T10:08:03.229Z,19.4
2019-02-11T10:09:03.855Z,23.4
2019-02-11T10:10:03.481Z,22
2019-02-11T10:11:02.783Z,18.4
2019-02-11T10:12:03.453Z,23.4
2019-02-11T10:13:03.144Z,24.5
2019-02-11T10:14:03.386Z,18.4
2019-02-11T10:15:03.706Z,17.3
2019-02-11T10:16:03.143Z,17.3
2019-02-11T10:17:03.711Z,18.4
2019-02-11T10:18:03.307Z,15.8
2019-02-11T10:19:03.028Z,19.4
2019-02-11T10:20:03.918Z,15.8
2019-02-11T10:21:03.747Z,19.4
2019-02-11T10:22:03.153Z,18.4
2019-02-11T10:23:03.700Z,20.9
2019-02-11T10:24:03.448Z,18.4
2019-02-11T10:25:04.074Z,19.4
2019-02-11T10:26:03.443Z,17.3
2019-02-11T10:27:03.647Z,17.3
2019-02-11T10:28:03.906Z,15.8
2019-02-11T10:29:03.502Z,15.8
2019-02-11T10:30:03.272Z,20.9
2019-02-11T10:31:03.280Z,20.9
2019-02-11T10:32:02.875Z,15.8
2019-02-11T10:33:03.307Z,23.4
2019-02-11T10:34:02.924Z,18.4
2019-02-11T10:35:03.359Z,19.4
2019-02-11T10:36:02.904Z,20.9
2019-02-11T10:37:03.407Z,17.3
2019-02-11T10:38:03.598Z,18.4
2019-02-11T10:39:03.361Z,22
2019-02-11T10:40:03.899Z,18.4
2019-02-11T10:41:03.169Z,17.3
2019-02-11T10:42:03.500Z,17.3
2019-02-11T10:43:03.283Z,15.8
2019-02-11T10:44:03.734Z,18.4
2019-02-11T10:45:03.312Z,20.9
2019-02-11T10:46:02.986Z,17.3
2019-02-11T10:47:03.296Z,18.4
2019-02-11T10:48:03.743Z,17.3
2019-02-11T10:49:03.316Z,18.4
2019-02-11T10:50:02.923Z,20.9
2019-02-11T10:51:03.416Z,23.4
2019-02-11T10:52:03.024Z,22
2019-02-11T10:53:03.351Z,22
2019-02-11T10:54:02.832Z,15.8
2019-02-11T10:55:03.467Z,17.3
2019-02-11T10:56:03.042Z,17.3
2019-02-11T10:57:03.419Z,19.4
2019-02-11T10:58:03.718Z,18.4
2019-02-11T10:59:03.364Z,23.4
2019-02-11T11:00:03.816Z,17.3
2019-02-11T11:01:02.982Z,14.8
2019-02-11T11:02:03.634Z,14.8
2019-02-11T11:03:03.205Z,14.8
2019-02-11T11:04:03.582Z,14.8
2019-02-11T11:05:03.952Z,14.8
2019-02-11T11:06:03.590Z,14.8
2019-02-11T11:07:03.123Z,14.8
2019-02-11T11:08:03.166Z,14.8
2019-02-11T11:09:04.937Z,17.3
2019-02-11T11:10:03.377Z,17.3
2019-02-11T11:11:02.991Z,20.9
2019-02-11T11:12:03.361Z,15.8
2019-02-11T11:13:03.507Z,15.8
2019-02-11T11:14:02.924Z,14.8
2019-02-11T11:15:03.750Z,14.8
2019-02-11T11:16:03.548Z,15.8
2019-02-11T11:17:03.739Z,13.3
2019-02-11T11:18:03.210Z,15.8
2019-02-11T11:19:03.767Z,13.3
2019-02-11T11:20:03.294Z,17.3
2019-02-11T11:21:03.453Z,15.8
2019-02-11T11:22:03.246Z,14.8
2019-02-11T11:23:03.473Z,15.8
2019-02-11T11:24:02.834Z,18.4
2019-02-11T11:25:03.383Z,17.3
2019-02-11T11:26:03.003Z,14.8
2019-02-11T11:27:03.118Z,14.8
2019-02-11T11:28:03.798Z,15.8
2019-02-11T11:29:03.359Z,15.8
2019-02-11T11:30:03.783Z,17.3
2019-02-11T11:31:03.138Z,18.4
2019-02-11T11:32:03.816Z,15.8
2019-02-11T11:33:03.401Z,15.8
2019-02-11T11:34:03.711Z,15.8
2019-02-11T11:35:03.458Z,15.8
2019-02-11T11:36:03.763Z,15.8
2019-02-11T11:37:02.973Z,15.8
2019-02-11T11:38:03.437Z,18.4
2019-02-11T11:39:03.724Z,22
2019-02-11T11:40:03.407Z,19.4
2019-02-11T11:41:03.957Z,14.8
2019-02-11T11:42:03.338Z,17.3
2019-02-11T11:43:03.987Z,20.9
2019-02-11T11:44:03.342Z,15.8
2019-02-11T11:45:03.990Z,18.4
2019-02-11T11:46:03.445Z,14.8
2019-02-11T11:47:03.570Z,14.8
2019-02-11T11:48:03.074Z,22
2019-02-11T11:49:03.587Z,17.3
2019-02-11T11:50:03.093Z,18.4
2019-02-11T11:51:03.671Z,22
2019-02-11T11:52:03.287Z,19.4
2019-02-11T11:53:02.874Z,17.3
2019-02-11T11:54:02.939Z,13.3
2019-02-11T11:55:03.548Z,18.4
2019-02-11T11:56:03.263Z,15.8
2019-02-11T11:57:03.644Z,18.4
2019-02-11T11:58:03.392Z,17.3
2019-02-11T11:59:03.194Z,17.3
2019-02-11T12:00:04.018Z,20.9
2019-02-11T12:01:03.440Z,15.8
2019-02-11T12:02:03.674Z,17.3
2019-02-11T12:03:06.828Z,18.4
2019-02-11T12:04:07.336Z,18.4
2019-02-11T12:05:03.158Z,17.3
2019-02-11T12:06:03.707Z,14.8
2019-02-11T12:07:03.260Z,19.4
2019-02-11T12:08:03.803Z,19.4
2019-02-11T12:09:03.884Z,19.4
2019-02-11T12:10:03.485Z,24.5
2019-02-11T12:11:03.480Z,18.4
2019-02-11T12:12:03.351Z,18.4
2019-02-11T12:13:24.458Z,18.4
2019-02-11T12:14:03.397Z,14.8
2019-02-11T12:15:03.393Z,18.4
2019-02-11T12:16:03.783Z,18.4
2019-02-11T12:17:03.926Z,22
2019-02-11T12:18:03.576Z,17.3
2019-02-11T12:19:03.220Z,18.4
2019-02-11T12:20:03.759Z,17.3
2019-02-11T12:21:03.394Z,15.8
2019-02-11T12:22:03.790Z,18.4
2019-02-11T12:23:03.592Z,18.4
2019-02-11T12:24:03.636Z,18.4
2019-02-11T12:25:03.217Z,19.4
2019-02-11T12:26:03.388Z,19.4
2019-02-11T12:27:04.116Z,18.4
2019-02-11T12:28:03.016Z,19.4
2019-02-11T12:29:03.849Z,15.8
2019-02-11T12:30:03.711Z,19.4
2019-02-11T12:31:03.216Z,18.4
2019-02-11T12:32:03.752Z,27
2019-02-11T12:33:03.261Z,18.4
2019-02-11T12:34:03.624Z,17.3
2019-02-11T12:35:04.058Z,17.3
2019-02-11T12:36:03.704Z,18.4
2019-02-11T12:37:03.832Z,17.3
2019-02-11T12:38:03.191Z,18.4
2019-02-11T12:39:03.941Z,18.4
2019-02-11T12:40:03.822Z,23.4
2019-02-11T12:41:03.843Z,24.5
2019-02-11T12:42:03.497Z,19.4
2019-02-11T12:43:03.905Z,17.3
2019-02-11T12:44:03.125Z,24.5
2019-02-11T12:45:03.611Z,18.4
2019-02-11T12:46:03.909Z,18.4
2019-02-11T12:47:15.884Z,22
2019-02-11T12:48:03.121Z,22
2019-02-11T12:49:03.892Z,19.4
2019-02-11T12:50:03.406Z,23.4
2019-02-11T12:51:03.880Z,19.4
2019-02-11T12:52:03.811Z,23.4
2019-02-11T12:53:03.211Z,22
2019-02-11T12:54:03.660Z,17.3
2019-02-11T12:55:08.718Z,18.4
2019-02-11T12:56:04.060Z,18.4
2019-02-11T12:57:03.145Z,13.3
2019-02-11T12:58:03.586Z,19.4
2019-02-11T12:59:03.059Z,23.4
2019-02-11T13:00:03.680Z,22
2019-02-11T13:01:03.265Z,18.4
2019-02-11T13:02:03.507Z,18.4
2019-02-11T13:03:03.917Z,18.4
2019-02-11T13:04:03.387Z,18.4
2019-02-11T13:05:03.973Z,18.4
2019-02-11T13:06:03.352Z,18.4
2019-02-11T13:07:04.065Z,18.4
2019-02-11T13:08:03.522Z,18.4
2019-02-11T13:09:03.034Z,17.3
2019-02-11T13:10:03.658Z,17.3
2019-02-11T13:11:03.786Z,15.8
2019-02-11T13:12:03.271Z,24.5
2019-02-11T13:13:08.019Z,25.6
2019-02-11T13:14:03.342Z,14.8
2019-02-11T13:15:03.928Z,15.8
2019-02-11T13:16:04.368Z,18.4
2019-02-11T13:17:35.365Z,22
2019-02-11T13:18:03.990Z,22
2019-02-11T13:19:03.588Z,24.5
2019-02-11T13:20:13.368Z,20.9
2019-02-11T13:21:03.303Z,24.5
2019-02-11T13:22:03.640Z,23.4
2019-02-11T13:23:03.456Z,20.9
2019-02-11T13:24:03.503Z,17.3